sensor_id;sensor_type;location;lat;lon;timestamp;temperature;humidity
53752;DHT22;41095;53.090;6.692;2023-02-22T00:00:37;9.70;99.90
53752;DHT22;41095;53.090;6.692;2023-02-22T00:03:20;9.70;99.90
53752;DHT22;41095;53.090;6.692;2023-02-22T00:05:54;9.70;99.90
53752;DHT22;41095;53.090;6.692;2023-02-22T00:08:24;9.70;99.90
53752;DHT22;41095;53.090;6.692;2023-02-22T00:10:55;9.70;99.90
53752;DHT22;41095;53.090;6.692;2023-02-22T00:13:21;9.60;99.90
53752;DHT22;41095;53.090;6.692;2023-02-22T00:15:47;9.70;99.90
53752;DHT22;41095;53.090;6.692;2023-02-22T00:18:16;9.70;99.90
53752;DHT22;41095;53.090;6.692;2023-02-22T00:20:42;9.70;99.90
53752;DHT22;41095;53.090;6.692;2023-02-22T00:23:19;9.70;99.90
53752;DHT22;41095;53.090;6.692;2023-02-22T00:25:48;9.70;99.90
53752;DHT22;41095;53.090;6.692;2023-02-22T00:28:15;9.60;99.90
53752;DHT22;41095;53.090;6.692;2023-02-22T00:30:42;9.70;99.90
53752;DHT22;41095;53.090;6.692;2023-02-22T00:33:09;9.70;99.90
53752;DHT22;41095;53.090;6.692;2023-02-22T00:35:34;9.70;99.90
53752;DHT22;41095;53.090;6.692;2023-02-22T00:38:01;9.60;99.90
53752;DHT22;41095;53.090;6.692;2023-02-22T00:40:30;9.60;99.90
53752;DHT22;41095;53.090;6.692;2023-02-22T00:42:57;9.60;99.90
53752;DHT22;41095;53.090;6.692;2023-02-22T00:45:25;9.60;99.90
53752;DHT22;41095;53.090;6.692;2023-02-22T00:47:51;9.60;99.90
53752;DHT22;41095;53.090;6.692;2023-02-22T00:50:20;9.60;99.90
53752;DHT22;41095;53.090;6.692;2023-02-22T00:52:46;9.60;99.90
53752;DHT22;41095;53.090;6.692;2023-02-22T00:55:24;9.60;99.90
53752;DHT22;41095;53.090;6.692;2023-02-22T00:57:50;9.60;99.90
53752;DHT22;41095;53.090;6.692;2023-02-22T01:00:28;9.60;99.90
53752;DHT22;41095;53.090;6.692;2023-02-22T01:02:54;9.60;99.90
53752;DHT22;41095;53.090;6.692;2023-02-22T01:05:24;9.60;99.90
53752;DHT22;41095;53.090;6.692;2023-02-22T01:07:50;9.60;99.90
53752;DHT22;41095;53.090;6.692;2023-02-22T01:10:20;9.60;99.90
53752;DHT22;41095;53.090;6.692;2023-02-22T01:12:47;9.60;99.90
53752;DHT22;41095;53.090;6.692;2023-02-22T01:15:14;9.60;99.90
53752;DHT22;41095;53.090;6.692;2023-02-22T01:17:40;9.60;99.90
53752;DHT22;41095;53.090;6.692;2023-02-22T01:20:09;9.60;99.90
53752;DHT22;41095;53.090;6.692;2023-02-22T01:22:39;9.60;99.90
53752;DHT22;41095;53.090;6.692;2023-02-22T01:25:05;9.60;99.90
53752;DHT22;41095;53.090;6.692;2023-02-22T01:27:33;9.60;99.90
53752;DHT22;41095;53.090;6.692;2023-02-22T01:29:59;9.60;99.90
53752;DHT22;41095;53.090;6.692;2023-02-22T01:32:25;9.60;99.90
53752;DHT22;41095;53.090;6.692;2023-02-22T01:34:53;9.50;99.90
53752;DHT22;41095;53.090;6.692;2023-02-22T01:37:19;9.60;99.90
53752;DHT22;41095;53.090;6.692;2023-02-22T01:39:45;9.50;99.90
53752;DHT22;41095;53.090;6.692;2023-02-22T01:42:11;9.60;99.90
53752;DHT22;41095;53.090;6.692;2023-02-22T01:44:38;9.50;99.90
53752;DHT22;41095;53.090;6.692;2023-02-22T01:47:06;9.50;99.90
53752;DHT22;41095;53.090;6.692;2023-02-22T01:49:37;9.50;99.90
53752;DHT22;41095;53.090;6.692;2023-02-22T01:52:07;9.50;99.90
53752;DHT22;41095;53.090;6.692;2023-02-22T01:54:40;9.50;99.90
53752;DHT22;41095;53.090;6.692;2023-02-22T01:59:40;9.50;99.90
53752;DHT22;41095;53.090;6.692;2023-02-22T02:02:06;9.50;99.90
53752;DHT22;41095;53.090;6.692;2023-02-22T02:04:33;9.50;99.90
53752;DHT22;41095;53.090;6.692;2023-02-22T02:07:06;9.60;99.90
53752;DHT22;41095;53.090;6.692;2023-02-22T02:11:58;9.50;99.90
53752;DHT22;41095;53.090;6.692;2023-02-22T02:14:30;9.50;99.90
53752;DHT22;41095;53.090;6.692;2023-02-22T02:16:57;9.60;99.90
53752;DHT22;41095;53.090;6.692;2023-02-22T02:19:51;9.60;99.90
53752;DHT22;41095;53.090;6.692;2023-02-22T02:22:22;9.60;99.90
53752;DHT22;41095;53.090;6.692;2023-02-22T02:39:35;9.50;99.90
53752;DHT22;41095;53.090;6.692;2023-02-22T02:42:06;9.50;99.90
53752;DHT22;41095;53.090;6.692;2023-02-22T02:44:52;9.60;99.90
53752;DHT22;41095;53.090;6.692;2023-02-22T02:47:26;9.60;99.90
53752;DHT22;41095;53.090;6.692;2023-02-22T02:50:00;9.50;99.90
53752;DHT22;41095;53.090;6.692;2023-02-22T02:52:28;9.50;99.90
53752;DHT22;41095;53.090;6.692;2023-02-22T02:54:55;9.50;99.90
53752;DHT22;41095;53.090;6.692;2023-02-22T02:57:22;9.50;99.90
53752;DHT22;41095;53.090;6.692;2023-02-22T02:59:49;9.40;99.90
53752;DHT22;41095;53.090;6.692;2023-02-22T03:02:34;9.50;99.90
53752;DHT22;41095;53.090;6.692;2023-02-22T03:10:37;9.40;99.90
53752;DHT22;41095;53.090;6.692;2023-02-22T03:13:25;9.50;99.90
53752;DHT22;41095;53.090;6.692;2023-02-22T03:24:21;9.40;99.90
53752;DHT22;41095;53.090;6.692;2023-02-22T03:27:03;9.40;99.90
53752;DHT22;41095;53.090;6.692;2023-02-22T03:29:37;9.40;99.90
53752;DHT22;41095;53.090;6.692;2023-02-22T03:32:07;8.70;99.90
53752;DHT22;41095;53.090;6.692;2023-02-22T03:34:37;9.50;99.90
53752;DHT22;41095;53.090;6.692;2023-02-22T03:37:12;9.50;99.90
53752;DHT22;41095;53.090;6.692;2023-02-22T03:39:40;9.50;99.90
53752;DHT22;41095;53.090;6.692;2023-02-22T03:42:14;9.50;99.90
53752;DHT22;41095;53.090;6.692;2023-02-22T03:44:44;9.50;99.90
53752;DHT22;41095;53.090;6.692;2023-02-22T03:47:13;9.50;99.90
53752;DHT22;41095;53.090;6.692;2023-02-22T03:49:46;9.50;99.90
53752;DHT22;41095;53.090;6.692;2023-02-22T03:52:14;9.50;99.90
53752;DHT22;41095;53.090;6.692;2023-02-22T03:54:39;9.50;99.90
53752;DHT22;41095;53.090;6.692;2023-02-22T03:59:34;9.50;99.90
53752;DHT22;41095;53.090;6.692;2023-02-22T04:02:00;9.50;99.90
53752;DHT22;41095;53.090;6.692;2023-02-22T04:04:26;9.40;99.90
53752;DHT22;41095;53.090;6.692;2023-02-22T04:06:52;9.30;99.90
53752;DHT22;41095;53.090;6.692;2023-02-22T04:09:18;9.10;99.90
53752;DHT22;41095;53.090;6.692;2023-02-22T04:11:44;9.30;99.90
53752;DHT22;41095;53.090;6.692;2023-02-22T04:14:10;9.00;99.90
53752;DHT22;41095;53.090;6.692;2023-02-22T04:16:35;9.10;99.90
53752;DHT22;41095;53.090;6.692;2023-02-22T04:19:01;9.10;99.90
53752;DHT22;41095;53.090;6.692;2023-02-22T04:21:27;9.10;99.90
53752;DHT22;41095;53.090;6.692;2023-02-22T04:23:53;9.10;99.90
53752;DHT22;41095;53.090;6.692;2023-02-22T04:26:19;9.10;99.90
53752;DHT22;41095;53.090;6.692;2023-02-22T04:28:45;9.10;99.90
53752;DHT22;41095;53.090;6.692;2023-02-22T04:31:10;9.10;99.90
53752;DHT22;41095;53.090;6.692;2023-02-22T04:33:36;9.10;99.90
53752;DHT22;41095;53.090;6.692;2023-02-22T04:36:02;9.10;99.90
53752;DHT22;41095;53.090;6.692;2023-02-22T04:38:28;9.10;99.90
53752;DHT22;41095;53.090;6.692;2023-02-22T04:40:54;9.10;99.90
53752;DHT22;41095;53.090;6.692;2023-02-22T04:43:20;9.10;99.90
53752;DHT22;41095;53.090;6.692;2023-02-22T04:45:46;9.10;99.90
53752;DHT22;41095;53.090;6.692;2023-02-22T04:48:12;9.10;99.90
53752;DHT22;41095;53.090;6.692;2023-02-22T04:50:37;9.10;99.90
53752;DHT22;41095;53.090;6.692;2023-02-22T04:53:04;9.00;99.90
53752;DHT22;41095;53.090;6.692;2023-02-22T04:55:29;8.90;99.90
53752;DHT22;41095;53.090;6.692;2023-02-22T04:57:56;8.90;99.90
53752;DHT22;41095;53.090;6.692;2023-02-22T05:00:22;8.90;99.90
53752;DHT22;41095;53.090;6.692;2023-02-22T05:02:49;8.90;99.90
53752;DHT22;41095;53.090;6.692;2023-02-22T05:05:20;9.00;99.90
53752;DHT22;41095;53.090;6.692;2023-02-22T05:07:47;9.00;99.90
53752;DHT22;41095;53.090;6.692;2023-02-22T05:10:13;9.00;99.90
53752;DHT22;41095;53.090;6.692;2023-02-22T05:12:39;9.00;99.90
53752;DHT22;41095;53.090;6.692;2023-02-22T05:15:07;9.00;99.90
53752;DHT22;41095;53.090;6.692;2023-02-22T05:17:34;9.10;99.90
53752;DHT22;41095;53.090;6.692;2023-02-22T05:20:00;9.00;99.90
53752;DHT22;41095;53.090;6.692;2023-02-22T05:22:27;9.00;99.90
53752;DHT22;41095;53.090;6.692;2023-02-22T05:24:53;9.00;99.90
53752;DHT22;41095;53.090;6.692;2023-02-22T05:27:21;8.90;99.90
53752;DHT22;41095;53.090;6.692;2023-02-22T05:29:47;8.80;99.90
53752;DHT22;41095;53.090;6.692;2023-02-22T05:32:13;8.80;99.90
53752;DHT22;41095;53.090;6.692;2023-02-22T05:34:38;8.70;99.90
53752;DHT22;41095;53.090;6.692;2023-02-22T05:37:04;8.70;99.90
53752;DHT22;41095;53.090;6.692;2023-02-22T05:39:30;8.70;99.90
53752;DHT22;41095;53.090;6.692;2023-02-22T05:41:57;8.70;99.90
53752;DHT22;41095;53.090;6.692;2023-02-22T05:44:23;8.60;99.90
53752;DHT22;41095;53.090;6.692;2023-02-22T05:46:49;8.60;99.90
53752;DHT22;41095;53.090;6.692;2023-02-22T05:49:14;8.60;99.90
53752;DHT22;41095;53.090;6.692;2023-02-22T05:51:40;8.60;99.90
53752;DHT22;41095;53.090;6.692;2023-02-22T05:54:06;8.50;99.90
53752;DHT22;41095;53.090;6.692;2023-02-22T05:56:32;8.50;99.90
53752;DHT22;41095;53.090;6.692;2023-02-22T05:58:58;8.50;99.90
53752;DHT22;41095;53.090;6.692;2023-02-22T06:01:24;8.40;99.90
53752;DHT22;41095;53.090;6.692;2023-02-22T06:03:50;8.40;99.90
53752;DHT22;41095;53.090;6.692;2023-02-22T06:06:17;8.40;99.90
53752;DHT22;41095;53.090;6.692;2023-02-22T06:08:45;8.40;99.90
53752;DHT22;41095;53.090;6.692;2023-02-22T06:11:11;8.40;99.90
53752;DHT22;41095;53.090;6.692;2023-02-22T06:13:37;8.40;99.90
53752;DHT22;41095;53.090;6.692;2023-02-22T06:16:03;8.30;99.90
53752;DHT22;41095;53.090;6.692;2023-02-22T06:18:29;8.30;99.90
53752;DHT22;41095;53.090;6.692;2023-02-22T06:20:56;8.30;99.90
53752;DHT22;41095;53.090;6.692;2023-02-22T06:23:23;8.20;99.90
53752;DHT22;41095;53.090;6.692;2023-02-22T06:25:48;8.20;99.90
53752;DHT22;41095;53.090;6.692;2023-02-22T06:28:14;8.20;99.90
53752;DHT22;41095;53.090;6.692;2023-02-22T06:30:40;8.20;99.90
53752;DHT22;41095;53.090;6.692;2023-02-22T06:33:08;8.10;99.90
53752;DHT22;41095;53.090;6.692;2023-02-22T06:35:33;8.10;99.90
53752;DHT22;41095;53.090;6.692;2023-02-22T06:38:00;8.10;99.90
53752;DHT22;41095;53.090;6.692;2023-02-22T06:40:26;8.10;99.90
53752;DHT22;41095;53.090;6.692;2023-02-22T06:42:55;8.00;99.90
53752;DHT22;41095;53.090;6.692;2023-02-22T06:45:21;8.00;99.90
53752;DHT22;41095;53.090;6.692;2023-02-22T06:47:47;8.00;99.90
53752;DHT22;41095;53.090;6.692;2023-02-22T06:50:28;8.00;99.90
53752;DHT22;41095;53.090;6.692;2023-02-22T06:52:54;8.00;99.90
53752;DHT22;41095;53.090;6.692;2023-02-22T06:55:23;8.00;99.90
53752;DHT22;41095;53.090;6.692;2023-02-22T06:57:49;8.00;99.90
53752;DHT22;41095;53.090;6.692;2023-02-22T07:00:16;7.90;99.90
53752;DHT22;41095;53.090;6.692;2023-02-22T07:02:43;8.00;99.90
53752;DHT22;41095;53.090;6.692;2023-02-22T07:05:10;7.90;99.90
53752;DHT22;41095;53.090;6.692;2023-02-22T07:07:37;7.90;99.90
53752;DHT22;41095;53.090;6.692;2023-02-22T07:10:07;8.00;99.90
53752;DHT22;41095;53.090;6.692;2023-02-22T07:12:34;7.90;99.90
53752;DHT22;41095;53.090;6.692;2023-02-22T07:15:00;7.90;99.90
53752;DHT22;41095;53.090;6.692;2023-02-22T07:17:26;7.90;99.90
53752;DHT22;41095;53.090;6.692;2023-02-22T07:19:52;7.90;99.90
53752;DHT22;41095;53.090;6.692;2023-02-22T07:22:18;7.90;99.90
53752;DHT22;41095;53.090;6.692;2023-02-22T07:24:44;7.90;99.90
53752;DHT22;41095;53.090;6.692;2023-02-22T07:27:10;8.00;99.90
53752;DHT22;41095;53.090;6.692;2023-02-22T07:29:35;8.00;99.90
53752;DHT22;41095;53.090;6.692;2023-02-22T07:32:01;8.00;99.90
53752;DHT22;41095;53.090;6.692;2023-02-22T07:34:27;8.00;99.90
53752;DHT22;41095;53.090;6.692;2023-02-22T07:36:53;8.00;99.90
53752;DHT22;41095;53.090;6.692;2023-02-22T07:39:18;8.00;99.90
53752;DHT22;41095;53.090;6.692;2023-02-22T07:41:45;8.10;99.90
53752;DHT22;41095;53.090;6.692;2023-02-22T07:44:10;8.10;99.90
53752;DHT22;41095;53.090;6.692;2023-02-22T07:46:37;8.10;99.90
53752;DHT22;41095;53.090;6.692;2023-02-22T07:49:03;8.10;99.90
53752;DHT22;41095;53.090;6.692;2023-02-22T07:51:28;8.20;99.90
53752;DHT22;41095;53.090;6.692;2023-02-22T07:53:54;8.20;99.90
53752;DHT22;41095;53.090;6.692;2023-02-22T07:56:20;8.30;99.90
53752;DHT22;41095;53.090;6.692;2023-02-22T07:58:45;8.30;99.90
53752;DHT22;41095;53.090;6.692;2023-02-22T08:01:11;8.30;99.90
53752;DHT22;41095;53.090;6.692;2023-02-22T08:03:37;8.30;99.90
53752;DHT22;41095;53.090;6.692;2023-02-22T08:06:05;8.40;99.90
53752;DHT22;41095;53.090;6.692;2023-02-22T08:08:31;8.40;99.90
53752;DHT22;41095;53.090;6.692;2023-02-22T08:10:57;8.40;99.90
53752;DHT22;41095;53.090;6.692;2023-02-22T08:13:22;8.40;99.90
53752;DHT22;41095;53.090;6.692;2023-02-22T08:15:51;8.40;99.90
53752;DHT22;41095;53.090;6.692;2023-02-22T08:18:18;8.40;99.90
53752;DHT22;41095;53.090;6.692;2023-02-22T08:20:47;8.40;99.90
53752;DHT22;41095;53.090;6.692;2023-02-22T08:23:15;8.80;99.90
53752;DHT22;41095;53.090;6.692;2023-02-22T08:25:41;8.40;99.90
53752;DHT22;41095;53.090;6.692;2023-02-22T08:28:10;8.40;99.90
53752;DHT22;41095;53.090;6.692;2023-02-22T08:30:37;8.50;99.90
53752;DHT22;41095;53.090;6.692;2023-02-22T08:33:03;8.50;99.90
53752;DHT22;41095;53.090;6.692;2023-02-22T08:35:31;8.60;99.90
53752;DHT22;41095;53.090;6.692;2023-02-22T08:38:00;8.60;99.90
53752;DHT22;41095;53.090;6.692;2023-02-22T08:40:29;8.70;99.90
53752;DHT22;41095;53.090;6.692;2023-02-22T08:42:56;8.80;99.90
53752;DHT22;41095;53.090;6.692;2023-02-22T08:45:22;8.80;99.90
53752;DHT22;41095;53.090;6.692;2023-02-22T08:47:48;8.80;99.90
53752;DHT22;41095;53.090;6.692;2023-02-22T08:50:23;8.90;99.90
53752;DHT22;41095;53.090;6.692;2023-02-22T08:52:50;8.90;99.90
53752;DHT22;41095;53.090;6.692;2023-02-22T08:55:24;8.90;99.90
53752;DHT22;41095;53.090;6.692;2023-02-22T08:57:50;8.90;99.90
53752;DHT22;41095;53.090;6.692;2023-02-22T09:00:20;8.90;99.90
53752;DHT22;41095;53.090;6.692;2023-02-22T09:02:49;8.90;99.90
53752;DHT22;41095;53.090;6.692;2023-02-22T09:05:15;9.00;99.90
53752;DHT22;41095;53.090;6.692;2023-02-22T09:07:42;9.00;99.90
53752;DHT22;41095;53.090;6.692;2023-02-22T09:10:17;9.10;99.90
53752;DHT22;41095;53.090;6.692;2023-02-22T09:12:43;9.10;99.90
53752;DHT22;41095;53.090;6.692;2023-02-22T09:15:10;9.20;99.90
53752;DHT22;41095;53.090;6.692;2023-02-22T09:17:36;9.20;99.90
53752;DHT22;41095;53.090;6.692;2023-02-22T09:20:06;9.20;99.90
53752;DHT22;41095;53.090;6.692;2023-02-22T09:22:32;9.30;99.90
53752;DHT22;41095;53.090;6.692;2023-02-22T09:24:58;9.30;99.90
53752;DHT22;41095;53.090;6.692;2023-02-22T09:27:24;9.30;99.90
53752;DHT22;41095;53.090;6.692;2023-02-22T09:29:53;9.30;99.90
53752;DHT22;41095;53.090;6.692;2023-02-22T09:32:21;9.20;99.90
53752;DHT22;41095;53.090;6.692;2023-02-22T09:34:47;9.20;99.90
53752;DHT22;41095;53.090;6.692;2023-02-22T09:37:13;9.20;99.90
53752;DHT22;41095;53.090;6.692;2023-02-22T09:39:39;9.20;99.90
53752;DHT22;41095;53.090;6.692;2023-02-22T09:42:12;9.20;99.90
53752;DHT22;41095;53.090;6.692;2023-02-22T09:47:14;9.30;99.90
53752;DHT22;41095;53.090;6.692;2023-02-22T09:50:08;9.30;99.90
53752;DHT22;41095;53.090;6.692;2023-02-22T09:55:47;9.40;99.90
53752;DHT22;41095;53.090;6.692;2023-02-22T09:58:21;9.50;99.90
53752;DHT22;41095;53.090;6.692;2023-02-22T10:00:51;9.50;99.90
53752;DHT22;41095;53.090;6.692;2023-02-22T10:03:34;9.50;99.90
53752;DHT22;41095;53.090;6.692;2023-02-22T10:06:08;9.50;99.90
53752;DHT22;41095;53.090;6.692;2023-02-22T10:08:36;9.50;99.90
53752;DHT22;41095;53.090;6.692;2023-02-22T10:25:04;9.50;99.90
53752;DHT22;41095;53.090;6.692;2023-02-22T10:27:39;9.60;99.90
53752;DHT22;41095;53.090;6.692;2023-02-22T10:30:20;9.60;99.90
53752;DHT22;41095;53.090;6.692;2023-02-22T10:32:51;9.70;99.90
53752;DHT22;41095;53.090;6.692;2023-02-22T10:35:27;9.70;99.90
53752;DHT22;41095;53.090;6.692;2023-02-22T10:37:58;9.70;99.90
53752;DHT22;41095;53.090;6.692;2023-02-22T10:40:27;9.70;99.90
53752;DHT22;41095;53.090;6.692;2023-02-22T10:43:08;9.70;99.90
53752;DHT22;41095;53.090;6.692;2023-02-22T10:45:36;9.60;99.90
53752;DHT22;41095;53.090;6.692;2023-02-22T10:48:12;9.60;99.90
53752;DHT22;41095;53.090;6.692;2023-02-22T10:50:41;9.60;99.90
53752;DHT22;41095;53.090;6.692;2023-02-22T10:53:08;9.60;99.90
53752;DHT22;41095;53.090;6.692;2023-02-22T10:55:34;9.60;99.90
53752;DHT22;41095;53.090;6.692;2023-02-22T10:58:03;9.60;99.90
53752;DHT22;41095;53.090;6.692;2023-02-22T11:00:36;9.70;99.90
53752;DHT22;41095;53.090;6.692;2023-02-22T11:03:14;9.70;99.90
53752;DHT22;41095;53.090;6.692;2023-02-22T11:05:41;9.80;99.90
53752;DHT22;41095;53.090;6.692;2023-02-22T11:08:25;9.90;99.90
53752;DHT22;41095;53.090;6.692;2023-02-22T11:10:57;10.00;99.90
53752;DHT22;41095;53.090;6.692;2023-02-22T11:13:26;10.10;99.90
53752;DHT22;41095;53.090;6.692;2023-02-22T11:15:54;10.10;99.90
53752;DHT22;41095;53.090;6.692;2023-02-22T11:18:26;10.20;99.90
53752;DHT22;41095;53.090;6.692;2023-02-22T11:21:05;10.30;99.90
53752;DHT22;41095;53.090;6.692;2023-02-22T11:23:33;10.40;99.90
53752;DHT22;41095;53.090;6.692;2023-02-22T11:28:33;10.60;99.90
53752;DHT22;41095;53.090;6.692;2023-02-22T11:33:55;10.80;99.90
53752;DHT22;41095;53.090;6.692;2023-02-22T11:36:48;10.90;99.90
53752;DHT22;41095;53.090;6.692;2023-02-22T11:39:30;11.00;99.90
53752;DHT22;41095;53.090;6.692;2023-02-22T11:42:26;11.00;99.90
53752;DHT22;41095;53.090;6.692;2023-02-22T11:48:00;10.90;99.90
53752;DHT22;41095;53.090;6.692;2023-02-22T11:56:30;10.80;99.90
53752;DHT22;41095;53.090;6.692;2023-02-22T11:59:56;10.80;99.90
53752;DHT22;41095;53.090;6.692;2023-02-22T12:02:30;10.70;99.90
53752;DHT22;41095;53.090;6.692;2023-02-22T12:13:02;10.70;99.90
53752;DHT22;41095;53.090;6.692;2023-02-22T12:21:06;10.70;99.90
53752;DHT22;41095;53.090;6.692;2023-02-22T12:23:35;10.70;99.90
53752;DHT22;41095;53.090;6.692;2023-02-22T12:26:06;10.90;99.90
53752;DHT22;41095;53.090;6.692;2023-02-22T12:28:46;10.90;99.90
53752;DHT22;41095;53.090;6.692;2023-02-22T12:34:32;11.10;99.90
53752;DHT22;41095;53.090;6.692;2023-02-22T12:37:21;11.20;99.90
53752;DHT22;41095;53.090;6.692;2023-02-22T12:42:28;11.50;99.90
53752;DHT22;41095;53.090;6.692;2023-02-22T12:45:04;11.60;99.90
53752;DHT22;41095;53.090;6.692;2023-02-22T12:47:39;11.70;99.90
53752;DHT22;41095;53.090;6.692;2023-02-22T12:50:19;11.80;99.90
53752;DHT22;41095;53.090;6.692;2023-02-22T12:53:01;11.80;99.90
53752;DHT22;41095;53.090;6.692;2023-02-22T12:55:36;11.80;99.90
53752;DHT22;41095;53.090;6.692;2023-02-22T12:58:26;11.80;99.90
53752;DHT22;41095;53.090;6.692;2023-02-22T13:00:57;11.70;99.90
53752;DHT22;41095;53.090;6.692;2023-02-22T13:08:49;11.70;99.90
53752;DHT22;41095;53.090;6.692;2023-02-22T13:17:08;11.40;99.90
53752;DHT22;41095;53.090;6.692;2023-02-22T13:22:48;11.30;99.90
53752;DHT22;41095;53.090;6.692;2023-02-22T13:28:06;11.30;99.90
53752;DHT22;41095;53.090;6.692;2023-02-22T13:39:31;11.50;99.90
53752;DHT22;41095;53.090;6.692;2023-02-22T13:42:04;11.50;99.90
53752;DHT22;41095;53.090;6.692;2023-02-22T13:52:53;11.50;99.90
53752;DHT22;41095;53.090;6.692;2023-02-22T13:55:32;11.40;99.90
53752;DHT22;41095;53.090;6.692;2023-02-22T13:58:09;11.50;99.90
53752;DHT22;41095;53.090;6.692;2023-02-22T14:00:46;11.50;99.90
53752;DHT22;41095;53.090;6.692;2023-02-22T14:08:06;11.40;99.90
53752;DHT22;41095;53.090;6.692;2023-02-22T14:13:11;11.50;99.90
53752;DHT22;41095;53.090;6.692;2023-02-22T14:18:41;11.60;99.90
53752;DHT22;41095;53.090;6.692;2023-02-22T14:21:19;11.50;99.90
53752;DHT22;41095;53.090;6.692;2023-02-22T14:23:51;11.50;99.90
53752;DHT22;41095;53.090;6.692;2023-02-22T14:26:27;11.50;99.90
53752;DHT22;41095;53.090;6.692;2023-02-22T14:28:59;11.40;99.90
53752;DHT22;41095;53.090;6.692;2023-02-22T14:31:31;11.40;99.90
53752;DHT22;41095;53.090;6.692;2023-02-22T14:34:09;11.40;99.90
53752;DHT22;41095;53.090;6.692;2023-02-22T14:37:06;11.30;99.90
53752;DHT22;41095;53.090;6.692;2023-02-22T14:39:57;11.20;99.90
53752;DHT22;41095;53.090;6.692;2023-02-22T14:47:50;11.20;99.90
53752;DHT22;41095;53.090;6.692;2023-02-22T14:55:41;11.20;99.90
53752;DHT22;41095;53.090;6.692;2023-02-22T15:00:40;11.10;99.90
53752;DHT22;41095;53.090;6.692;2023-02-22T15:03:18;11.10;99.90
53752;DHT22;41095;53.090;6.692;2023-02-22T15:05:49;11.10;99.90
53752;DHT22;41095;53.090;6.692;2023-02-22T15:08:16;11.00;99.90
53752;DHT22;41095;53.090;6.692;2023-02-22T15:10:46;11.00;99.90
53752;DHT22;41095;53.090;6.692;2023-02-22T15:13:23;11.00;99.90
53752;DHT22;41095;53.090;6.692;2023-02-22T15:15:58;11.00;99.90
53752;DHT22;41095;53.090;6.692;2023-02-22T15:18:45;11.00;99.90
53752;DHT22;41095;53.090;6.692;2023-02-22T15:21:13;10.90;99.90
53752;DHT22;41095;53.090;6.692;2023-02-22T15:23:47;10.90;99.90
53752;DHT22;41095;53.090;6.692;2023-02-22T15:26:17;10.90;99.90
53752;DHT22;41095;53.090;6.692;2023-02-22T15:28:44;10.90;99.90
53752;DHT22;41095;53.090;6.692;2023-02-22T15:33:50;10.90;99.90
53752;DHT22;41095;53.090;6.692;2023-02-22T15:36:23;10.90;99.90
53752;DHT22;41095;53.090;6.692;2023-02-22T15:38:51;10.90;99.90
53752;DHT22;41095;53.090;6.692;2023-02-22T15:41:24;10.90;99.90
53752;DHT22;41095;53.090;6.692;2023-02-22T15:44:07;11.00;99.90
53752;DHT22;41095;53.090;6.692;2023-02-22T15:46:33;11.00;99.90
53752;DHT22;41095;53.090;6.692;2023-02-22T15:51:36;11.00;99.90
53752;DHT22;41095;53.090;6.692;2023-02-22T15:54:03;10.90;99.90
53752;DHT22;41095;53.090;6.692;2023-02-22T15:56:34;10.90;99.90
53752;DHT22;41095;53.090;6.692;2023-02-22T15:59:27;10.90;99.90
53752;DHT22;41095;53.090;6.692;2023-02-22T16:01:58;10.80;99.90
53752;DHT22;41095;53.090;6.692;2023-02-22T16:04:29;10.70;99.90
53752;DHT22;41095;53.090;6.692;2023-02-22T16:07:06;10.80;99.90
53752;DHT22;41095;53.090;6.692;2023-02-22T16:09:46;10.80;99.90
53752;DHT22;41095;53.090;6.692;2023-02-22T16:14:45;10.80;99.90
53752;DHT22;41095;53.090;6.692;2023-02-22T16:17:36;10.70;99.90
53752;DHT22;41095;53.090;6.692;2023-02-22T16:22:56;10.80;99.90
53752;DHT22;41095;53.090;6.692;2023-02-22T16:25:32;10.70;99.90
53752;DHT22;41095;53.090;6.692;2023-02-22T16:28:22;10.70;99.90
53752;DHT22;41095;53.090;6.692;2023-02-22T16:30:55;10.70;99.90
53752;DHT22;41095;53.090;6.692;2023-02-22T16:33:21;10.70;99.90
53752;DHT22;41095;53.090;6.692;2023-02-22T16:35:47;10.70;99.90
53752;DHT22;41095;53.090;6.692;2023-02-22T16:38:22;10.70;99.90
53752;DHT22;41095;53.090;6.692;2023-02-22T16:40:49;10.70;99.90
53752;DHT22;41095;53.090;6.692;2023-02-22T16:43:22;10.70;99.90
53752;DHT22;41095;53.090;6.692;2023-02-22T16:45:48;10.70;99.90
53752;DHT22;41095;53.090;6.692;2023-02-22T16:48:18;10.60;99.90
53752;DHT22;41095;53.090;6.692;2023-02-22T16:50:45;10.60;99.90
53752;DHT22;41095;53.090;6.692;2023-02-22T16:53:12;10.50;99.90
53752;DHT22;41095;53.090;6.692;2023-02-22T16:55:41;10.50;99.90
53752;DHT22;41095;53.090;6.692;2023-02-22T16:58:10;10.50;99.90
53752;DHT22;41095;53.090;6.692;2023-02-22T17:00:37;10.40;99.90
53752;DHT22;41095;53.090;6.692;2023-02-22T17:03:03;10.40;99.90
53752;DHT22;41095;53.090;6.692;2023-02-22T17:05:32;10.40;99.90
53752;DHT22;41095;53.090;6.692;2023-02-22T17:08:05;10.40;99.90
53752;DHT22;41095;53.090;6.692;2023-02-22T17:10:31;10.50;99.90
53752;DHT22;41095;53.090;6.692;2023-02-22T17:12:58;10.50;99.90
53752;DHT22;41095;53.090;6.692;2023-02-22T17:15:27;10.50;99.90
53752;DHT22;41095;53.090;6.692;2023-02-22T17:17:55;10.50;99.90
53752;DHT22;41095;53.090;6.692;2023-02-22T17:20:22;10.50;99.90
53752;DHT22;41095;53.090;6.692;2023-02-22T17:23:00;10.50;99.90
53752;DHT22;41095;53.090;6.692;2023-02-22T17:25:39;10.10;99.90
53752;DHT22;41095;53.090;6.692;2023-02-22T17:28:06;10.50;99.90
53752;DHT22;41095;53.090;6.692;2023-02-22T17:30:32;10.40;99.90
53752;DHT22;41095;53.090;6.692;2023-02-22T17:33:01;10.50;99.90
53752;DHT22;41095;53.090;6.692;2023-02-22T17:35:30;10.40;99.90
53752;DHT22;41095;53.090;6.692;2023-02-22T17:37:57;10.40;99.90
53752;DHT22;41095;53.090;6.692;2023-02-22T17:40:24;10.40;99.90
53752;DHT22;41095;53.090;6.692;2023-02-22T17:42:50;10.40;99.90
53752;DHT22;41095;53.090;6.692;2023-02-22T17:45:20;10.40;99.90
53752;DHT22;41095;53.090;6.692;2023-02-22T17:47:48;10.20;99.90
53752;DHT22;41095;53.090;6.692;2023-02-22T17:50:14;10.00;99.90
53752;DHT22;41095;53.090;6.692;2023-02-22T17:52:41;9.90;99.90
53752;DHT22;41095;53.090;6.692;2023-02-22T17:55:07;9.90;99.90
53752;DHT22;41095;53.090;6.692;2023-02-22T17:57:33;10.00;99.90
53752;DHT22;41095;53.090;6.692;2023-02-22T18:00:01;10.00;99.90
53752;DHT22;41095;53.090;6.692;2023-02-22T18:02:38;10.10;99.90
53752;DHT22;41095;53.090;6.692;2023-02-22T18:05:04;10.10;99.90
53752;DHT22;41095;53.090;6.692;2023-02-22T18:07:30;10.00;99.90
53752;DHT22;41095;53.090;6.692;2023-02-22T18:09:56;10.00;99.90
53752;DHT22;41095;53.090;6.692;2023-02-22T18:12:22;10.00;99.90
53752;DHT22;41095;53.090;6.692;2023-02-22T18:14:48;9.90;99.90
53752;DHT22;41095;53.090;6.692;2023-02-22T18:17:14;9.80;99.90
53752;DHT22;41095;53.090;6.692;2023-02-22T18:19:40;9.80;99.90
53752;DHT22;41095;53.090;6.692;2023-02-22T18:22:06;9.60;99.90
53752;DHT22;41095;53.090;6.692;2023-02-22T18:24:33;9.60;99.90
53752;DHT22;41095;53.090;6.692;2023-02-22T18:26:59;9.60;99.90
53752;DHT22;41095;53.090;6.692;2023-02-22T18:29:25;9.50;99.90
53752;DHT22;41095;53.090;6.692;2023-02-22T18:31:53;8.90;99.90
53752;DHT22;41095;53.090;6.692;2023-02-22T18:34:21;9.50;99.90